createdAt,value
2023-03-26T00:02:11.000Z,407.5225830078125
2023-03-26T00:04:51.000Z,409.4826965332031
2023-03-26T00:07:32.000Z,409.4857177734375
2023-03-26T00:10:10.000Z,412.79620361328125
2023-03-26T00:12:50.000Z,412.43170166015625
2023-03-26T00:15:29.000Z,410.04266357421875
2023-03-26T00:18:10.000Z,412.986572265625
2023-03-26T00:20:49.000Z,411.68389892578125
2023-03-26T00:23:28.000Z,411.83917236328125
2023-03-26T00:26:10.000Z,410.3624267578125
2023-03-26T00:28:51.000Z,412.13861083984375
2023-03-26T00:31:33.000Z,411.430419921875
2023-03-26T00:34:12.000Z,418.90057373046875
2023-03-26T00:36:51.000Z,423.09002685546875
2023-03-26T00:39:32.000Z,417.4908752441406
2023-03-26T00:42:12.000Z,417.53076171875
2023-03-26T00:44:52.000Z,416.781005859375
2023-03-26T00:47:35.000Z,414.4685974121094
2023-03-26T00:50:18.000Z,418.5212097167969
2023-03-26T00:53:02.000Z,416.83563232421875
2023-03-26T00:55:45.000Z,419.7660217285156
2023-03-26T00:58:25.000Z,417.6911926269531
2023-03-26T01:01:06.000Z,417.72607421875
2023-03-26T01:03:49.000Z,419.6666564941406
2023-03-26T01:06:28.000Z,418.0733337402344
2023-03-26T01:09:09.000Z,418.6890869140625
2023-03-26T01:11:51.000Z,417.1877746582031
2023-03-26T01:14:36.000Z,416.99273681640625
2023-03-26T01:17:19.000Z,420.26116943359375
2023-03-26T01:19:57.000Z,422.9886474609375
2023-03-26T01:22:41.000Z,415.7295837402344
2023-03-26T01:25:20.000Z,416.5381774902344
2023-03-26T01:28:00.000Z,416.0279541015625
2023-03-26T01:30:41.000Z,414.78021240234375
2023-03-26T01:33:22.000Z,413.1667785644531
2023-03-26T01:36:05.000Z,420.5079040527344
2023-03-26T01:38:51.000Z,417.49163818359375
2023-03-26T01:41:36.000Z,421.8670349121094
2023-03-26T01:44:16.000Z,421.865478515625
2023-03-26T01:46:58.000Z,421.0339660644531
2023-03-26T01:49:40.000Z,418.579833984375
2023-03-26T01:52:23.000Z,415.53887939453125
2023-03-26T01:55:05.000Z,418.1572265625
2023-03-26T01:57:46.000Z,416.8569030761719
2023-03-26T02:00:24.000Z,417.8531494140625
2023-03-26T02:03:11.000Z,417.376953125
2023-03-26T02:05:54.000Z,417.9978332519531
2023-03-26T02:08:34.000Z,415.98956298828125
2023-03-26T02:11:13.000Z,419.3992614746094
2023-03-26T02:13:53.000Z,419.67987060546875
2023-03-26T02:16:40.000Z,419.53125
2023-03-26T02:19:24.000Z,414.679931640625
2023-03-26T02:22:05.000Z,415.2146911621094
2023-03-26T02:24:47.000Z,410.35125732421875
2023-03-26T02:27:25.000Z,411.14483642578125
2023-03-26T02:30:06.000Z,410.9000244140625
2023-03-26T02:32:49.000Z,407.34912109375
2023-03-26T02:35:28.000Z,409.8189392089844
2023-03-26T02:38:07.000Z,412.7463073730469
2023-03-26T02:40:49.000Z,411.4234619140625
2023-03-26T02:43:30.000Z,410.3082275390625
2023-03-26T02:46:10.000Z,414.2266540527344
2023-03-26T02:48:50.000Z,411.0708312988281
2023-03-26T02:51:31.000Z,411.1331481933594
2023-03-26T02:54:11.000Z,412.7086486816406
2023-03-26T02:56:52.000Z,408.7504577636719
2023-03-26T02:59:34.000Z,407.7293395996094
2023-03-26T03:02:15.000Z,412.30731201171875
2023-03-26T03:04:58.000Z,414.67584228515625
2023-03-26T03:07:42.000Z,413.6085510253906
2023-03-26T03:10:24.000Z,412.0309753417969
2023-03-26T03:13:06.000Z,412.0699157714844
2023-03-26T03:15:46.000Z,414.495849609375
2023-03-26T03:18:26.000Z,412.6688537597656
2023-03-26T03:21:07.000Z,414.23822021484375
2023-03-26T03:23:47.000Z,413.66162109375
2023-03-26T03:26:28.000Z,413.0775146484375
2023-03-26T03:29:09.000Z,418.0697326660156
2023-03-26T03:31:51.000Z,417.83624267578125
2023-03-26T03:34:35.000Z,420.5428466796875
2023-03-26T03:37:17.000Z,418.30865478515625
2023-03-26T03:39:59.000Z,418.2345275878906
2023-03-26T03:42:40.000Z,416.3408508300781
2023-03-26T03:45:22.000Z,418.47998046875
2023-03-26T03:48:06.000Z,416.75665283203125
2023-03-26T03:50:47.000Z,416.017822265625
2023-03-26T03:53:27.000Z,412.5232238769531
2023-03-26T03:56:07.000Z,415.5473937988281
2023-03-26T03:58:48.000Z,411.39251708984375
2023-03-26T04:01:29.000Z,408.0437316894531
2023-03-26T04:04:10.000Z,408.5025329589844
2023-03-26T04:06:51.000Z,409.6622619628906
2023-03-26T04:09:30.000Z,414.73699951171875
2023-03-26T04:12:10.000Z,412.7491760253906
2023-03-26T04:14:52.000Z,410.1933898925781
2023-03-26T04:17:33.000Z,407.31085205078125
2023-03-26T04:20:14.000Z,411.0456237792969
2023-03-26T04:22:54.000Z,407.56793212890625
2023-03-26T04:25:36.000Z,407.43804931640625
2023-03-26T04:28:18.000Z,406.3104248046875
2023-03-26T04:31:02.000Z,406.425537109375
2023-03-26T04:33:44.000Z,407.4007873535156
2023-03-26T04:36:24.000Z,411.9273986816406
2023-03-26T04:39:07.000Z,410.00799560546875
2023-03-26T04:41:49.000Z,411.65191650390625
2023-03-26T04:44:26.000Z,413.19097900390625
2023-03-26T04:47:09.000Z,408.87347412109375
2023-03-26T04:49:48.000Z,404.1800537109375
2023-03-26T04:52:29.000Z,405.3818359375
2023-03-26T04:55:12.000Z,414.4615478515625
2023-03-26T04:57:53.000Z,418.4194030761719
2023-03-26T05:00:35.000Z,421.3865966796875
2023-03-26T05:03:16.000Z,419.9604797363281
2023-03-26T05:05:57.000Z,415.60125732421875
2023-03-26T05:08:38.000Z,411.7298278808594
2023-03-26T05:11:23.000Z,409.7618713378906
2023-03-26T05:14:02.000Z,407.152099609375
2023-03-26T05:16:44.000Z,409.3455810546875
2023-03-26T05:19:25.000Z,412.4014587402344
2023-03-26T05:22:05.000Z,409.296875
2023-03-26T05:24:46.000Z,408.0933532714844
2023-03-26T05:27:28.000Z,414.3446350097656
2023-03-26T05:30:10.000Z,415.166748046875
2023-03-26T05:32:51.000Z,411.26898193359375
2023-03-26T05:35:34.000Z,411.4195861816406
2023-03-26T05:38:16.000Z,411.7458190917969
2023-03-26T05:40:58.000Z,412.54730224609375
2023-03-26T05:43:40.000Z,413.8117980957031
2023-03-26T05:46:22.000Z,414.71734619140625
2023-03-26T05:49:03.000Z,413.0046691894531
2023-03-26T05:51:44.000Z,418.3746643066406
2023-03-26T05:54:31.000Z,416.7201232910156
2023-03-26T05:57:13.000Z,418.0942077636719
2023-03-26T05:59:53.000Z,415.1578063964844
2023-03-26T06:02:34.000Z,415.1059875488281
2023-03-26T06:05:14.000Z,412.9693298339844
2023-03-26T06:07:54.000Z,411.14923095703125
2023-03-26T06:10:36.000Z,412.4523620605469
2023-03-26T06:13:16.000Z,411.97845458984375
2023-03-26T06:15:59.000Z,411.0049743652344
2023-03-26T06:18:40.000Z,413.43914794921875
2023-03-26T06:21:20.000Z,417.24481201171875
2023-03-26T06:24:01.000Z,415.29034423828125
2023-03-26T06:26:46.000Z,413.2911071777344
2023-03-26T06:29:26.000Z,419.1462707519531
2023-03-26T06:32:07.000Z,417.41650390625
2023-03-26T06:34:50.000Z,409.6290588378906
2023-03-26T06:37:33.000Z,409.55438232421875
2023-03-26T06:40:16.000Z,412.0187683105469
2023-03-26T06:42:56.000Z,415.94635009765625
2023-03-26T06:45:36.000Z,411.9521179199219
2023-03-26T06:48:19.000Z,411.6012878417969
2023-03-26T06:50:59.000Z,409.99346923828125
2023-03-26T06:53:38.000Z,436.9530334472656
2023-03-26T06:56:19.000Z,441.5039367675781
2023-03-26T06:58:57.000Z,437.74578857421875
2023-03-26T07:01:37.000Z,445.0658874511719
2023-03-26T07:04:18.000Z,445.505615234375
2023-03-26T07:07:00.000Z,436.758056640625
2023-03-26T07:09:38.000Z,435.70660400390625
2023-03-26T07:12:19.000Z,438.2200927734375
2023-03-26T07:14:58.000Z,435.4587707519531
2023-03-26T07:17:41.000Z,442.05694580078125
2023-03-26T07:20:20.000Z,435.9820556640625
2023-03-26T07:22:59.000Z,433.4165954589844
2023-03-26T07:25:40.000Z,437.354248046875
2023-03-26T07:28:24.000Z,435.77459716796875
2023-03-26T07:31:05.000Z,430.589599609375
2023-03-26T07:33:48.000Z,430.621826171875
2023-03-26T07:36:29.000Z,436.75921630859375
2023-03-26T07:39:10.000Z,431.13330078125
2023-03-26T07:41:51.000Z,432.9901123046875
2023-03-26T07:44:35.000Z,436.5404968261719
2023-03-26T07:47:17.000Z,431.8279113769531
2023-03-26T07:49:59.000Z,426.3914489746094
2023-03-26T07:52:41.000Z,432.1851501464844
2023-03-26T07:55:23.000Z,434.7276306152344
2023-03-26T07:58:07.000Z,434.466796875
2023-03-26T08:00:47.000Z,429.1789855957031
2023-03-26T08:03:27.000Z,432.0035400390625
2023-03-26T08:06:07.000Z,421.31988525390625
2023-03-26T08:08:49.000Z,424.72540283203125
2023-03-26T08:11:31.000Z,429.1588439941406
2023-03-26T08:14:10.000Z,429.41064453125
2023-03-26T08:16:52.000Z,427.4558410644531
2023-03-26T08:19:34.000Z,429.50067138671875
2023-03-26T08:22:14.000Z,425.622314453125
2023-03-26T08:24:54.000Z,426.6031494140625
2023-03-26T08:27:36.000Z,434.9237976074219
2023-03-26T08:30:18.000Z,431.74078369140625
2023-03-26T08:33:00.000Z,427.3938903808594
2023-03-26T08:35:41.000Z,434.2672119140625
2023-03-26T08:38:23.000Z,431.96551513671875
2023-03-26T08:41:04.000Z,419.2525329589844
2023-03-26T08:43:48.000Z,426.18890380859375
2023-03-26T08:46:29.000Z,436.1946105957031
2023-03-26T08:49:11.000Z,412.26953125
2023-03-26T08:51:53.000Z,424.19122314453125
2023-03-26T08:54:30.000Z,443.8417663574219
2023-03-26T08:57:14.000Z,435.9147644042969
2023-03-26T08:59:54.000Z,432.8456726074219
2023-03-26T09:02:36.000Z,437.7744140625
2023-03-26T09:05:18.000Z,437.27685546875
2023-03-26T09:07:59.000Z,431.01763916015625
2023-03-26T09:10:41.000Z,441.2147521972656
2023-03-26T09:13:22.000Z,438.5948181152344
2023-03-26T09:16:03.000Z,430.4976501464844
2023-03-26T09:18:42.000Z,437.6960754394531
2023-03-26T09:21:24.000Z,451.0877685546875
2023-03-26T09:24:06.000Z,429.0635070800781
2023-03-26T09:26:48.000Z,437.6761474609375
2023-03-26T09:29:29.000Z,439.11822509765625
2023-03-26T09:32:10.000Z,424.97808837890625
2023-03-26T09:34:51.000Z,422.2392272949219
2023-03-26T09:37:34.000Z,439.1055603027344
2023-03-26T09:40:14.000Z,421.86187744140625
2023-03-26T09:42:56.000Z,420.75006103515625
2023-03-26T09:45:39.000Z,436.88775634765625
2023-03-26T09:48:17.000Z,438.4497985839844
2023-03-26T09:50:58.000Z,425.01446533203125
2023-03-26T09:53:41.000Z,429.6693420410156
2023-03-26T09:56:23.000Z,421.9537353515625
2023-03-26T09:59:05.000Z,415.77880859375
2023-03-26T10:01:48.000Z,428.5272521972656
2023-03-26T10:04:28.000Z,431.6447448730469
2023-03-26T10:07:10.000Z,434.4548645019531
2023-03-26T10:09:51.000Z,439.07763671875
2023-03-26T10:12:34.000Z,443.5744323730469
2023-03-26T10:15:14.000Z,426.2745056152344
2023-03-26T10:17:59.000Z,423.4206848144531
2023-03-26T10:20:39.000Z,439.92724609375
2023-03-26T10:23:23.000Z,428.08245849609375
2023-03-26T10:26:06.000Z,419.1667785644531
2023-03-26T10:28:46.000Z,426.40582275390625
2023-03-26T10:31:28.000Z,437.7449645996094
2023-03-26T10:34:06.000Z,419.63037109375
2023-03-26T10:36:47.000Z,421.514892578125
2023-03-26T10:39:28.000Z,431.69134521484375
2023-03-26T10:42:09.000Z,423.3611145019531
2023-03-26T10:44:51.000Z,426.1252136230469
2023-03-26T10:47:35.000Z,431.9469909667969
2023-03-26T10:50:19.000Z,424.63250732421875
2023-03-26T10:52:59.000Z,423.832763671875
2023-03-26T10:55:45.000Z,425.6622314453125
2023-03-26T10:58:28.000Z,421.35821533203125
2023-03-26T11:01:10.000Z,416.7196960449219
2023-03-26T11:03:50.000Z,434.89129638671875
2023-03-26T11:06:34.000Z,436.3581237792969
2023-03-26T11:09:14.000Z,421.854736328125
2023-03-26T11:11:54.000Z,429.6360168457031
2023-03-26T11:14:35.000Z,428.5374755859375
2023-03-26T11:17:15.000Z,426.78204345703125
2023-03-26T11:19:58.000Z,422.88433837890625
2023-03-26T11:22:39.000Z,434.1440734863281
2023-03-26T11:25:22.000Z,425.06427001953125
2023-03-26T11:28:05.000Z,420.76177978515625
2023-03-26T11:30:46.000Z,430.141357421875
2023-03-26T11:33:28.000Z,433.5223693847656
2023-03-26T11:36:10.000Z,428.54669189453125
2023-03-26T11:38:53.000Z,436.1328125
2023-03-26T11:41:35.000Z,442.9483337402344
2023-03-26T11:44:14.000Z,424.8835754394531
2023-03-26T11:46:54.000Z,428.766357421875
2023-03-26T11:49:33.000Z,430.4634704589844
2023-03-26T11:52:13.000Z,422.8994445800781
2023-03-26T11:54:52.000Z,424.4507141113281
2023-03-26T11:57:33.000Z,422.2828674316406
2023-03-26T12:00:11.000Z,420.15252685546875
2023-03-26T12:02:52.000Z,431.7789306640625
2023-03-26T12:05:34.000Z,438.37408447265625
2023-03-26T12:08:17.000Z,423.637939453125
2023-03-26T12:11:00.000Z,428.5115051269531
2023-03-26T12:13:44.000Z,430.0138854980469
2023-03-26T12:16:28.000Z,421.2048645019531
2023-03-26T12:19:08.000Z,423.2599792480469
2023-03-26T12:21:54.000Z,427.8693542480469
2023-03-26T12:24:35.000Z,430.2803955078125
2023-03-26T12:27:19.000Z,425.9647216796875
2023-03-26T12:30:00.000Z,425.57574462890625
2023-03-26T12:32:45.000Z,422.6177978515625
2023-03-26T12:35:28.000Z,412.3074645996094
2023-03-26T12:38:11.000Z,408.6842346191406
2023-03-26T12:38:11.000Z,408.6842346191406
2023-03-26T12:40:52.000Z,414.0758361816406
2023-03-26T12:40:52.000Z,414.0758361816406
2023-03-26T12:43:35.000Z,418.7304382324219
2023-03-26T12:43:35.000Z,418.7304382324219
2023-03-26T12:46:19.000Z,417.2398681640625
2023-03-26T12:49:01.000Z,417.09454345703125
2023-03-26T12:51:42.000Z,422.6808776855469
2023-03-26T12:54:24.000Z,415.81927490234375
2023-03-26T12:57:07.000Z,426.5061340332031
2023-03-26T12:59:52.000Z,428.4552917480469
2023-03-26T13:02:34.000Z,429.679931640625
2023-03-26T13:05:17.000Z,425.3808288574219
2023-03-26T13:08:01.000Z,424.60455322265625
2023-03-26T13:10:45.000Z,432.9120788574219
2023-03-26T13:13:28.000Z,427.72137451171875
2023-03-26T13:16:10.000Z,426.4225769042969
2023-03-26T13:18:52.000Z,426.7299499511719
2023-03-26T13:21:35.000Z,426.36578369140625
2023-03-26T13:24:18.000Z,423.439697265625
2023-03-26T13:27:00.000Z,436.3531494140625
2023-03-26T13:29:45.000Z,428.5108337402344
2023-03-26T13:32:28.000Z,424.3403625488281
2023-03-26T13:35:10.000Z,424.408203125
2023-03-26T13:37:52.000Z,429.6883239746094
2023-03-26T13:40:35.000Z,431.88421630859375
2023-03-26T13:43:17.000Z,431.6676940917969
2023-03-26T13:45:59.000Z,434.1003723144531
2023-03-26T13:48:44.000Z,431.47314453125
2023-03-26T13:51:26.000Z,426.43157958984375
2023-03-26T13:54:08.000Z,425.5471496582031
2023-03-26T13:56:50.000Z,424.71484375
2023-03-26T13:59:34.000Z,420.811767578125
2023-03-26T14:02:15.000Z,420.71881103515625
2023-03-26T14:04:57.000Z,429.7083740234375
2023-03-26T14:07:41.000Z,429.38031005859375
2023-03-26T14:10:23.000Z,431.4177551269531
2023-03-26T14:13:06.000Z,435.176025390625
2023-03-26T14:15:46.000Z,441.4383850097656
2023-03-26T14:18:28.000Z,431.9095153808594
2023-03-26T14:21:10.000Z,437.1464538574219
2023-03-26T14:23:51.000Z,435.5492248535156
2023-03-26T14:26:37.000Z,434.3397216796875
2023-03-26T14:29:19.000Z,432.72686767578125
2023-03-26T14:32:01.000Z,432.0205078125
2023-03-26T14:34:46.000Z,437.197021484375
2023-03-26T14:37:28.000Z,433.85662841796875
2023-03-26T14:40:15.000Z,431.52874755859375
2023-03-26T14:42:55.000Z,431.8251647949219
2023-03-26T14:45:38.000Z,429.1890869140625
2023-03-26T14:48:20.000Z,425.00762939453125
2023-03-26T14:51:02.000Z,424.5959777832031
2023-03-26T14:53:45.000Z,430.3362731933594
2023-03-26T14:56:25.000Z,429.78155517578125
2023-03-26T14:59:07.000Z,436.0518798828125
2023-03-26T15:01:51.000Z,428.59771728515625
2023-03-26T15:04:36.000Z,426.6456604003906
2023-03-26T15:07:15.000Z,428.656005859375
2023-03-26T15:10:01.000Z,436.9393615722656
2023-03-26T15:12:46.000Z,434.6087951660156
2023-03-26T15:15:27.000Z,433.1116027832031
2023-03-26T15:18:09.000Z,431.320068359375
2023-03-26T15:20:51.000Z,434.4460754394531
2023-03-26T15:23:34.000Z,433.4881896972656
2023-03-26T15:26:18.000Z,435.08319091796875
2023-03-26T15:29:02.000Z,441.7707214355469
2023-03-26T15:31:46.000Z,440.3018493652344
2023-03-26T15:34:25.000Z,432.56024169921875
2023-03-26T15:37:06.000Z,434.20684814453125
2023-03-26T15:39:48.000Z,433.3305358886719
2023-03-26T15:42:31.000Z,430.0262451171875
2023-03-26T15:45:13.000Z,427.9848327636719
2023-03-26T15:47:57.000Z,435.45953369140625
2023-03-26T15:50:41.000Z,431.05657958984375
2023-03-26T15:53:22.000Z,428.5179748535156
2023-03-26T15:56:06.000Z,433.16131591796875
2023-03-26T15:58:47.000Z,435.2501525878906
2023-03-26T16:01:28.000Z,434.3908386230469
2023-03-26T16:04:10.000Z,434.57012939453125
2023-03-26T16:06:52.000Z,436.7196960449219
2023-03-26T16:09:33.000Z,433.9920349121094
2023-03-26T16:12:15.000Z,433.8735656738281
2023-03-26T16:14:59.000Z,430.04730224609375
2023-03-26T16:17:40.000Z,431.05914306640625
2023-03-26T16:20:24.000Z,430.47662353515625
2023-03-26T16:23:06.000Z,431.1636657714844
2023-03-26T16:25:49.000Z,435.5762023925781
2023-03-26T16:28:37.000Z,431.2703552246094
2023-03-26T16:31:24.000Z,435.145263671875
2023-03-26T16:34:10.000Z,436.47491455078125
2023-03-26T16:36:53.000Z,436.2685546875
2023-03-26T16:39:36.000Z,437.2925109863281
2023-03-26T16:42:18.000Z,437.9061279296875
2023-03-26T16:45:00.000Z,434.80047607421875
2023-03-26T16:47:46.000Z,439.7898254394531
2023-03-26T16:50:33.000Z,442.320556640625
2023-03-26T16:53:14.000Z,441.5420837402344
2023-03-26T16:55:56.000Z,440.0881042480469
2023-03-26T16:58:48.000Z,438.24468994140625
2023-03-26T17:01:30.000Z,439.739013671875
2023-03-26T17:04:13.000Z,439.4993896484375
2023-03-26T17:06:54.000Z,434.9056396484375
2023-03-26T17:09:39.000Z,435.6304931640625
2023-03-26T17:12:26.000Z,435.76165771484375
2023-03-26T17:15:09.000Z,435.8115234375
2023-03-26T17:17:51.000Z,437.2034606933594
2023-03-26T17:20:37.000Z,439.3023376464844
2023-03-26T17:23:19.000Z,439.9577331542969
2023-03-26T17:26:02.000Z,439.9107971191406
2023-03-26T17:28:47.000Z,436.96746826171875
2023-03-26T17:31:29.000Z,433.97039794921875
2023-03-26T17:34:22.000Z,435.9117431640625
2023-03-26T17:37:14.000Z,442.4454040527344
2023-03-26T17:40:01.000Z,443.8091125488281
2023-03-26T17:42:44.000Z,438.8502502441406
2023-03-26T17:45:29.000Z,443.1722106933594
2023-03-26T17:48:11.000Z,447.78814697265625
2023-03-26T17:50:50.000Z,449.00115966796875
2023-03-26T17:53:34.000Z,444.3616638183594
2023-03-26T17:56:17.000Z,453.64752197265625
2023-03-26T17:59:00.000Z,455.5614013671875
2023-03-26T18:01:44.000Z,456.0657958984375
2023-03-26T18:04:25.000Z,453.82708740234375
2023-03-26T18:07:08.000Z,454.4696350097656
2023-03-26T18:09:51.000Z,451.0419006347656
2023-03-26T18:12:35.000Z,449.4255065917969
2023-03-26T18:15:18.000Z,453.4074401855469
2023-03-26T18:18:02.000Z,457.5155029296875
2023-03-26T18:20:43.000Z,452.9478454589844
2023-03-26T18:23:25.000Z,447.1912536621094
2023-03-26T18:26:09.000Z,448.8707580566406
2023-03-26T18:28:52.000Z,447.93182373046875
2023-03-26T18:31:36.000Z,445.6354064941406
2023-03-26T18:34:18.000Z,447.1781311035156
2023-03-26T18:36:59.000Z,449.04034423828125
2023-03-26T18:39:44.000Z,449.6788635253906
2023-03-26T18:42:27.000Z,446.7640380859375
2023-03-26T18:45:09.000Z,447.8183898925781
2023-03-26T18:47:49.000Z,444.57794189453125
2023-03-26T18:50:35.000Z,442.1367492675781
2023-03-26T18:53:26.000Z,440.3417053222656
2023-03-26T18:56:10.000Z,437.95538330078125
2023-03-26T18:58:53.000Z,438.31964111328125
2023-03-26T19:01:36.000Z,442.5410461425781
2023-03-26T19:04:18.000Z,445.07220458984375
2023-03-26T19:07:01.000Z,449.8855895996094
2023-03-26T19:09:46.000Z,448.0257873535156
2023-03-26T19:12:27.000Z,444.7867126464844
2023-03-26T19:15:13.000Z,448.5005798339844
2023-03-26T19:17:59.000Z,442.7290344238281
2023-03-26T19:20:40.000Z,440.0299072265625
2023-03-26T19:23:21.000Z,442.69049072265625
2023-03-26T19:26:06.000Z,448.2602844238281
2023-03-26T19:28:54.000Z,452.0201110839844
2023-03-26T19:31:35.000Z,450.0538635253906
2023-03-26T19:34:18.000Z,449.7110595703125
2023-03-26T19:36:59.000Z,450.1825256347656
2023-03-26T19:39:48.000Z,453.3746032714844
2023-03-26T19:42:30.000Z,451.6748962402344
2023-03-26T19:45:13.000Z,450.8123779296875
2023-03-26T19:47:55.000Z,443.8614501953125
2023-03-26T19:50:39.000Z,445.47216796875
2023-03-26T19:53:21.000Z,448.6788330078125
2023-03-26T19:56:03.000Z,444.4430847167969
2023-03-26T19:58:43.000Z,443.13232421875
2023-03-26T20:01:26.000Z,447.12225341796875
2023-03-26T20:04:10.000Z,452.5290832519531
2023-03-26T20:06:51.000Z,448.46771240234375
2023-03-26T20:09:34.000Z,446.4959716796875
2023-03-26T20:12:18.000Z,446.9664001464844
2023-03-26T20:15:02.000Z,447.7610168457031
2023-03-26T20:17:46.000Z,446.7383728027344
2023-03-26T20:20:29.000Z,446.7552795410156
2023-03-26T20:23:11.000Z,444.6075439453125
2023-03-26T20:25:54.000Z,439.81884765625
2023-03-26T20:28:37.000Z,442.40606689453125
2023-03-26T20:31:27.000Z,441.4834899902344
2023-03-26T20:34:09.000Z,444.06207275390625
2023-03-26T20:36:53.000Z,445.33978271484375
2023-03-26T20:39:36.000Z,443.7383117675781
2023-03-26T20:42:19.000Z,448.8621826171875
2023-03-26T20:45:01.000Z,445.5467224121094
2023-03-26T20:47:51.000Z,445.4157409667969
2023-03-26T20:50:35.000Z,446.2725830078125
2023-03-26T20:53:19.000Z,447.36590576171875
2023-03-26T20:56:00.000Z,448.5606689453125
2023-03-26T20:58:44.000Z,446.6146240234375
2023-03-26T21:01:27.000Z,442.1965637207031
2023-03-26T21:04:08.000Z,442.1307678222656
2023-03-26T21:06:51.000Z,440.8772277832031
2023-03-26T21:09:32.000Z,446.06195068359375
2023-03-26T21:12:14.000Z,449.8675842285156
2023-03-26T21:14:55.000Z,447.7966613769531
2023-03-26T21:17:44.000Z,447.4462890625
2023-03-26T21:20:27.000Z,447.1559143066406
2023-03-26T21:23:10.000Z,449.28302001953125
2023-03-26T21:25:52.000Z,444.1860656738281
2023-03-26T21:28:34.000Z,447.6387939453125
2023-03-26T21:31:18.000Z,444.3094177246094
2023-03-26T21:34:02.000Z,446.9443359375
2023-03-26T21:36:50.000Z,441.34002685546875
2023-03-26T21:39:32.000Z,444.0733337402344
2023-03-26T21:42:15.000Z,439.6184387207031
2023-03-26T21:44:58.000Z,436.18603515625
2023-03-26T21:47:42.000Z,433.5378723144531
2023-03-26T21:50:24.000Z,439.2660217285156
2023-03-26T21:53:07.000Z,434.5083923339844
2023-03-26T21:55:52.000Z,427.79119873046875
2023-03-26T21:58:35.000Z,429.2696533203125
2023-03-26T22:01:22.000Z,435.8270568847656
2023-03-26T22:04:05.000Z,432.95904541015625
2023-03-26T22:06:47.000Z,434.76031494140625
2023-03-26T22:09:27.000Z,434.6788635253906
2023-03-26T22:12:10.000Z,439.8306579589844
2023-03-26T22:14:52.000Z,442.41693115234375
2023-03-26T22:17:34.000Z,443.7450256347656
2023-03-26T22:20:18.000Z,439.9407043457031
2023-03-26T22:22:58.000Z,441.4944152832031
2023-03-26T22:25:52.000Z,442.1609191894531
2023-03-26T22:28:33.000Z,441.34375
2023-03-26T22:31:17.000Z,441.136474609375
2023-03-26T22:34:00.000Z,437.1363220214844
2023-03-26T22:36:40.000Z,436.8235778808594
2023-03-26T22:39:27.000Z,434.53265380859375
2023-03-26T22:42:10.000Z,431.3102722167969
2023-03-26T22:44:53.000Z,431.6634826660156
2023-03-26T22:47:35.000Z,435.2663879394531
2023-03-26T22:50:18.000Z,434.16363525390625
2023-03-26T22:53:05.000Z,432.04205322265625
2023-03-26T22:55:46.000Z,431.0689697265625
2023-03-26T22:58:27.000Z,432.0217590332031
2023-03-26T23:01:11.000Z,429.8111267089844
2023-03-26T23:03:53.000Z,430.03057861328125
2023-03-26T23:06:40.000Z,435.3113098144531
2023-03-26T23:09:20.000Z,437.1741638183594
2023-03-26T23:12:02.000Z,430.85498046875
2023-03-26T23:14:45.000Z,427.1588134765625
2023-03-26T23:17:28.000Z,430.5414123535156
2023-03-26T23:20:11.000Z,427.7137145996094
2023-03-26T23:22:52.000Z,429.27032470703125
2023-03-26T23:25:36.000Z,430.7603454589844
2023-03-26T23:28:19.000Z,433.5403747558594
2023-03-26T23:31:07.000Z,434.9559020996094
2023-03-26T23:33:50.000Z,432.8949279785156
2023-03-26T23:36:30.000Z,431.802734375
2023-03-26T23:39:13.000Z,436.95416259765625
2023-03-26T23:42:03.000Z,432.9862365722656
2023-03-26T23:44:47.000Z,433.9956970214844
2023-03-26T23:47:29.000Z,436.6021728515625
2023-03-26T23:50:10.000Z,437.86566162109375
2023-03-26T23:52:53.000Z,434.5559387207031
2023-03-26T23:55:37.000Z,431.88128662109375
2023-03-26T23:58:22.000Z,435.9183349609375
